Time;durP1;ratioP1;P1;durP2;ratioP2;P2;SDS_P1;SDS_P2;PMS_P1;PMS_P2;Temp;Humidity;BMP_temperature;BMP_pressure;BME280_temperature;BME280_humidity;BME280_pressure;Samples;Min_cycle;Max_cycle;Signal;HPM_P1;HPM_P2
2022/12/28 00:02:10;;;;;;;9.77;2.58;;;;;;;7.08;47.35;101669.75;7391837;19;19994;-54
2022/12/28 00:04:36;;;;;;;14.20;2.65;;;;;;;7.12;47.03;101657.22;7391399;19;19999;-53
2022/12/28 00:07:02;;;;;;;10.20;2.20;;;;;;;7.41;46.43;101646.94;7393758;19;20021;-54
2022/12/28 00:09:28;;;;;;;7.28;2.20;;;;;;;7.40;46.21;101650.75;7392589;19;20464;-55
2022/12/28 00:11:53;;;;;;;8.60;2.20;;;;;;;6.95;47.43;101645.00;7393338;19;19998;-54
2022/12/28 00:14:19;;;;;;;8.32;1.95;;;;;;;7.07;47.17;101635.59;7391068;19;20432;-55
2022/12/28 00:16:45;;;;;;;5.63;1.92;;;;;;;7.08;46.71;101626.31;7392955;19;20325;-55
2022/12/28 00:19:14;;;;;;;8.02;2.13;;;;;;;7.28;46.50;101636.84;7393475;19;20002;-53
2022/12/28 00:21:41;;;;;;;8.13;2.05;;;;;;;7.34;46.41;101619.34;7388304;19;20010;-57
2022/12/28 00:24:07;;;;;;;7.60;1.88;;;;;;;7.20;46.61;101619.34;7392196;19;20101;-57
2022/12/28 00:26:34;;;;;;;8.75;1.92;;;;;;;7.06;46.82;101607.63;7392192;19;20078;-57
2022/12/28 00:29:01;;;;;;;11.55;2.22;;;;;;;7.19;46.49;101601.41;7393506;19;20026;-57
2022/12/28 00:31:27;;;;;;;7.43;1.65;;;;;;;7.27;46.16;101596.44;7390166;19;20006;-57
2022/12/28 00:33:53;;;;;;;7.45;1.70;;;;;;;7.29;46.27;101595.00;7392740;19;20014;-58
2022/12/28 00:36:18;;;;;;;7.45;1.85;;;;;;;7.40;45.94;101593.72;7395894;19;19998;-59
2022/12/28 00:38:44;;;;;;;8.20;1.85;;;;;;;7.04;46.55;101583.50;7394628;19;20069;-60
2022/12/28 00:41:10;;;;;;;9.05;1.90;;;;;;;6.86;47.16;101577.00;7395721;19;20002;-59
2022/12/28 00:43:36;;;;;;;9.30;2.20;;;;;;;7.19;46.37;101576.19;7393307;19;20478;-60
2022/12/28 00:46:02;;;;;;;7.03;1.90;;;;;;;7.18;46.34;101561.81;7395934;19;20002;-60
2022/12/28 00:48:28;;;;;;;8.63;1.85;;;;;;;7.33;45.87;101552.56;7395628;19;20019;-60
2022/12/28 00:51:02;;;;;;;7.40;2.05;;;;;;;7.22;46.20;101562.81;7395979;19;20006;-58
2022/12/28 00:53:28;;;;;;;6.53;1.75;;;;;;;7.37;45.58;101553.56;7393351;19;20458;-59
2022/12/28 00:55:54;;;;;;;5.95;1.90;;;;;;;7.38;45.60;101554.41;7395757;19;19994;-59
2022/12/28 00:58:20;;;;;;;7.10;1.90;;;;;;;7.33;45.73;101551.75;7393406;19;20013;-58
2022/12/28 01:00:48;;;;;;;7.78;1.90;;;;;;;7.45;45.68;101543.13;7396310;19;20014;-58
2022/12/28 01:03:13;;;;;;;8.38;2.08;;;;;;;7.54;45.29;101558.41;7393126;19;20119;-58
2022/12/28 01:05:39;;;;;;;7.95;1.70;;;;;;;7.20;45.91;101545.22;7395323;19;20022;-60
2022/12/28 01:08:05;;;;;;;7.10;1.90;;;;;;;7.04;46.34;101545.50;7395872;19;19997;-59
2022/12/28 01:10:30;;;;;;;7.63;2.33;;;;;;;7.03;46.29;101541.16;7394415;19;20058;-59
2022/12/28 01:12:56;;;;;;;7.70;2.05;;;;;;;7.15;46.04;101546.13;7390053;19;20015;-60
2022/12/28 01:15:22;;;;;;;8.63;2.50;;;;;;;7.38;45.64;101538.91;7395415;19;20058;-58
2022/12/28 01:17:47;;;;;;;4.65;1.88;;;;;;;7.36;45.69;101540.28;7387511;19;20006;-59
2022/12/28 01:20:13;;;;;;;9.05;2.28;;;;;;;7.31;45.80;101552.09;7391964;19;19991;-58
2022/12/28 01:22:39;;;;;;;8.90;2.15;;;;;;;6.90;46.64;101541.13;7388405;19;20007;-58
2022/12/28 01:25:05;;;;;;;8.55;2.30;;;;;;;7.02;46.51;101542.25;7391011;19;20017;-58
2022/12/28 01:27:31;;;;;;;8.63;2.03;;;;;;;7.36;45.85;101530.25;7390677;19;20058;-58
2022/12/28 01:29:56;;;;;;;5.50;1.98;;;;;;;7.09;46.15;101532.94;7391332;19;19998;-58
2022/12/28 01:32:22;;;;;;;9.10;1.90;;;;;;;7.15;46.23;101529.81;7389239;19;20011;-59
2022/12/28 01:34:48;;;;;;;6.78;2.00;;;;;;;7.18;46.05;101523.81;7390984;19;20410;-59
2022/12/28 01:37:13;;;;;;;8.70;1.88;;;;;;;7.24;45.83;101513.63;7390535;19;20316;-59
2022/12/28 01:39:39;;;;;;;8.85;1.85;;;;;;;7.09;46.20;101508.50;7390550;19;19995;-59
2022/12/28 01:42:09;;;;;;;9.70;2.15;;;;;;;7.26;46.13;101511.41;7390230;19;20006;-59
2022/12/28 01:44:43;;;;;;;10.27;2.65;;;;;;;7.38;45.97;101503.59;7390617;19;19999;-59
2022/12/28 01:47:13;;;;;;;10.43;2.20;;;;;;;7.29;45.97;101494.53;7389635;19;20713;-57
2022/12/28 01:49:45;;;;;;;13.88;2.25;;;;;;;7.34;46.04;101489.00;7390766;19;20070;-59
2022/12/28 01:52:13;;;;;;;8.75;2.10;;;;;;;7.00;46.88;101490.19;7389385;19;20003;-58
2022/12/28 01:54:44;;;;;;;6.88;1.90;;;;;;;7.29;46.37;101480.16;7389473;19;20303;-60
2022/12/28 01:57:12;;;;;;;5.57;1.80;;;;;;;6.99;47.28;101477.72;7390187;19;20074;-59
2022/12/28 01:59:42;;;;;;;10.90;2.10;;;;;;;6.97;47.22;101462.84;7388917;19;20022;-59
2022/12/28 02:02:16;;;;;;;7.22;1.95;;;;;;;7.28;47.01;101457.63;7389582;19;20003;-60
2022/12/28 02:04:45;;;;;;;9.35;2.00;;;;;;;7.32;46.79;101457.81;7389505;19;20006;-60
2022/12/28 02:07:19;;;;;;;8.80;2.25;;;;;;;7.36;46.64;101448.78;7390115;19;20065;-59
2022/12/28 02:09:45;;;;;;;8.02;2.13;;;;;;;7.56;46.50;101454.88;7390231;19;20014;-59
2022/12/28 02:12:14;;;;;;;8.75;2.30;;;;;;;7.19;47.09;101437.72;7389059;19;20026;-59
2022/12/28 02:14:41;;;;;;;9.00;2.20;;;;;;;7.15;47.27;101431.28;7389916;19;20395;-59
2022/12/28 02:17:11;;;;;;;6.97;1.90;;;;;;;7.13;47.50;101425.34;7389790;19;20002;-59
2022/12/28 02:19:45;;;;;;;5.95;1.95;;;;;;;7.18;47.53;101417.13;7388250;19;20009;-59
2022/12/28 02:22:48;;;;;;;6.32;2.72;;;;;;;7.04;48.05;101404.34;7388471;19;20007;-60
2022/12/28 02:25:33;;;;;;;6.03;2.20;;;;;;;7.18;47.69;101412.47;7397342;19;20011;-59
2022/12/28 02:28:06;;;;;;;9.07;2.15;;;;;;;7.09;48.42;101406.13;7395084;19;20007;-59
2022/12/28 02:30:36;;;;;;;7.15;2.03;;;;;;;6.95;48.48;101400.72;7397596;19;20089;-57
2022/12/28 02:33:11;;;;;;;10.35;2.45;;;;;;;7.12;48.45;101391.16;7393473;19;20438;-60
2022/12/28 02:35:43;;;;;;;9.20;2.78;;;;;;;6.98;48.53;101386.56;7396746;19;20086;-59
2022/12/28 02:38:20;;;;;;;8.18;2.58;;;;;;;6.86;49.11;101370.75;7394935;19;20006;-58
2022/12/28 02:40:53;;;;;;;9.05;2.58;;;;;;;6.97;48.91;101360.50;7396596;19;20014;-59
2022/12/28 02:43:18;;;;;;;5.65;2.42;;;;;;;7.20;48.76;101350.53;7393253;19;20003;-59
2022/12/28 02:51:46;;;;;;;5.90;2.08;;;;;;;6.78;50.10;101335.38;7396683;19;20006;-58
2022/12/28 02:57:40;;;;;;;6.50;1.98;;;;;;;6.85;50.34;101323.00;7394975;19;20007;-58
2022/12/28 03:00:14;;;;;;;7.00;2.70;;;;;;;6.82;50.22;101325.53;7395899;19;20363;-60
2022/12/28 03:02:42;;;;;;;8.18;2.40;;;;;;;6.82;50.51;101318.16;7393176;19;20002;-61
2022/12/28 03:08:43;;;;;;;10.15;2.67;;;;;;;6.94;50.64;101298.69;7394395;19;20358;-60
2022/12/28 03:11:12;;;;;;;6.78;2.20;;;;;;;6.94;50.21;101298.69;7391301;19;20342;-60
2022/12/28 03:13:55;;;;;;;7.93;1.98;;;;;;;7.03;50.03;101283.31;7392474;19;20327;-61
2022/12/28 03:16:32;;;;;;;8.55;2.20;;;;;;;7.04;50.20;101274.06;7395703;19;20009;-60
2022/12/28 03:33:05;;;;;;;9.73;2.25;;;;;;;6.74;51.38;101231.28;7393482;19;19999;-60
2022/12/28 03:35:36;;;;;;;8.35;1.90;;;;;;;6.52;52.03;101234.72;7393010;19;19998;-60
2022/12/28 03:38:03;;;;;;;8.35;1.80;;;;;;;6.81;51.34;101227.03;7392744;19;20466;-58
2022/12/28 03:40:38;;;;;;;6.88;1.80;;;;;;;6.85;51.07;101222.59;7394144;19;20026;-59
2022/12/28 03:46:12;;;;;;;6.50;2.10;;;;;;;6.58;52.18;101217.25;7394606;19;19999;-60
2022/12/28 03:48:40;;;;;;;8.25;2.10;;;;;;;6.96;51.14;101228.66;7393624;19;20517;-61
2022/12/28 03:51:06;;;;;;;7.18;1.98;;;;;;;6.76;51.52;101212.78;7393999;19;20029;-60
2022/12/28 03:53:39;;;;;;;5.60;1.92;;;;;;;6.92;51.44;101205.94;7391477;19;20003;-60
2022/12/28 03:56:10;;;;;;;4.68;1.80;;;;;;;6.76;51.53;101197.31;7394182;19;20003;-60
2022/12/28 03:58:36;;;;;;;7.57;2.47;;;;;;;7.05;50.98;101183.38;7391710;19;20002;-60
2022/12/28 04:01:02;;;;;;;5.75;2.20;;;;;;;6.99;51.17;101190.00;7394845;19;20019;-60
2022/12/28 04:03:28;;;;;;;5.00;1.88;;;;;;;6.45;52.77;101184.41;7392039;19;20014;-59
2022/12/28 04:05:55;;;;;;;7.85;2.17;;;;;;;6.75;52.02;101178.63;7393836;19;19999;-61
2022/12/28 04:08:20;;;;;;;7.68;2.13;;;;;;;6.93;51.84;101166.84;7394732;19;20003;-60
2022/12/28 04:10:46;;;;;;;7.95;2.03;;;;;;;6.92;52.10;101148.94;7393110;19;20010;-59
2022/12/28 04:13:12;;;;;;;6.88;2.17;;;;;;;7.04;51.71;101161.97;7391164;19;19998;-60
2022/12/28 04:15:37;;;;;;;6.03;2.00;;;;;;;6.78;52.40;101161.75;7393888;19;20020;-60
2022/12/28 04:18:03;;;;;;;11.93;2.45;;;;;;;6.89;52.23;101146.81;7392669;19;20003;-59
2022/12/28 04:20:29;;;;;;;6.07;2.13;;;;;;;6.71;53.03;101145.06;7393732;19;20010;-58
2022/12/28 04:22:55;;;;;;;10.30;3.83;;;;;;;6.72;52.93;101136.63;7391153;19;20014;-59
2022/12/28 04:25:21;;;;;;;7.22;2.55;;;;;;;7.30;51.73;101123.34;7390703;19;20014;-59
2022/12/28 04:27:46;;;;;;;6.45;2.50;;;;;;;7.46;51.19;101115.56;7392793;19;19998;-59
2022/12/28 04:30:12;;;;;;;7.03;2.45;;;;;;;7.03;52.35;101115.03;7390991;19;19990;-58
2022/12/28 04:32:38;;;;;;;9.60;2.40;;;;;;;7.05;52.57;101101.94;7391439;19;20002;-59
2022/12/28 04:35:04;;;;;;;6.93;2.55;;;;;;;7.26;52.16;101090.53;7393029;19;19999;-60
2022/12/28 04:37:29;;;;;;;8.38;2.42;;;;;;;7.15;52.54;101091.94;7392303;19;19994;-59
2022/12/28 04:39:55;;;;;;;6.63;2.85;;;;;;;7.05;52.97;101085.66;7390002;19;20057;-60
2022/12/28 04:42:21;;;;;;;8.52;2.90;;;;;;;7.15;52.58;101089.22;7391248;19;19998;-59
2022/12/28 04:44:47;;;;;;;7.25;2.75;;;;;;;7.26;52.49;101076.97;7392680;19;19990;-60
2022/12/28 04:47:12;;;;;;;10.55;2.85;;;;;;;6.93;53.52;101069.16;7392799;19;19994;-59
2022/12/28 04:49:38;;;;;;;8.43;3.08;;;;;;;7.01;53.41;101070.28;7392408;19;20018;-58
2022/12/28 04:52:04;;;;;;;9.57;3.60;;;;;;;7.05;53.28;101063.94;7391838;19;20007;-59
2022/12/28 04:54:30;;;;;;;5.55;3.00;;;;;;;7.04;53.48;101066.97;7391402;19;19991;-60
2022/12/28 04:56:55;;;;;;;11.90;3.05;;;;;;;7.17;53.41;101065.28;7391355;19;20002;-59
2022/12/28 04:59:21;;;;;;;9.90;3.58;;;;;;;7.19;53.56;101065.75;7391904;19;20465;-60
2022/12/28 05:01:47;;;;;;;6.25;3.05;;;;;;;7.13;53.69;101059.69;7391651;19;19998;-60
2022/12/28 05:04:13;;;;;;;9.00;3.45;;;;;;;7.12;53.70;101058.06;7391370;19;20309;-60
2022/12/28 05:06:38;;;;;;;10.63;3.50;;;;;;;6.98;54.09;101052.72;7391828;19;20525;-60
2022/12/28 05:09:04;;;;;;;8.38;3.55;;;;;;;6.50;55.99;101048.69;7391688;19;20331;-60
2022/12/28 05:11:30;;;;;;;7.90;3.53;;;;;;;6.75;55.24;101051.13;7391384;19;19995;-60
2022/12/28 05:13:56;;;;;;;9.82;3.45;;;;;;;6.81;55.38;101041.72;7391213;19;20062;-60
2022/12/28 05:16:24;;;;;;;11.38;3.65;;;;;;;6.98;54.82;101049.22;7391116;19;20018;-60
2022/12/28 05:18:50;;;;;;;9.68;3.67;;;;;;;6.87;55.34;101035.84;7389694;19;20010;-61
2022/12/28 05:21:22;;;;;;;8.73;3.67;;;;;;;7.05;54.87;101042.22;7391283;19;19999;-60
2022/12/28 05:23:48;;;;;;;11.13;3.90;;;;;;;6.60;56.35;101031.38;7388776;19;20010;-59
2022/12/28 05:26:17;;;;;;;8.88;3.70;;;;;;;6.81;55.68;101025.44;7390733;19;20373;-61
2022/12/28 05:28:43;;;;;;;6.30;3.28;;;;;;;7.02;55.05;101034.69;7391775;19;20003;-60
2022/12/28 05:31:14;;;;;;;8.57;3.70;;;;;;;7.08;54.97;101038.09;7390065;19;20002;-60
2022/12/28 05:33:41;;;;;;;8.57;3.40;;;;;;;6.83;55.71;101034.09;7388848;19;20006;-61
2022/12/28 05:36:10;;;;;;;7.57;3.40;;;;;;;6.90;55.64;101037.16;7390589;19;20002;-60
2022/12/28 05:38:36;;;;;;;7.95;3.45;;;;;;;6.91;55.74;101030.66;7389361;19;20058;-60
2022/12/28 05:41:05;;;;;;;8.93;3.35;;;;;;;7.26;54.88;101019.94;7388996;19;20526;-61
2022/12/28 05:43:30;;;;;;;6.45;3.28;;;;;;;7.39;54.52;101024.47;7389001;19;20032;-59
2022/12/28 05:46:01;;;;;;;7.35;3.30;;;;;;;7.41;54.46;101019.56;7388964;19;20383;-60
2022/12/28 05:48:30;;;;;;;5.65;3.25;;;;;;;7.04;55.71;101007.25;7391471;19;19999;-61
2022/12/28 05:51:01;;;;;;;7.22;3.60;;;;;;;7.31;55.18;101014.41;7388116;19;20546;-60
2022/12/28 05:53:28;;;;;;;7.60;3.35;;;;;;;7.01;55.85;101011.41;7388267;19;20122;-61
2022/12/28 05:56:10;;;;;;;7.47;3.50;;;;;;;7.34;55.05;101019.19;7390408;19;20073;-61
2022/12/28 05:58:36;;;;;;;8.48;3.72;;;;;;;7.58;54.56;101009.88;7393341;19;20006;-60
2022/12/28 06:01:12;;;;;;;9.02;4.00;;;;;;;7.41;55.15;101005.16;7398075;19;20015;-60
2022/12/28 06:03:38;;;;;;;6.20;3.50;;;;;;;7.02;56.28;101004.06;7393360;19;20037;-60
2022/12/28 06:06:09;;;;;;;7.18;3.50;;;;;;;7.20;55.78;101002.22;7397886;19;20002;-60
2022/12/28 06:08:36;;;;;;;6.53;3.53;;;;;;;6.89;56.86;100989.41;7397975;19;20002;-59
2022/12/28 06:11:05;;;;;;;5.95;3.10;;;;;;;7.35;55.55;100995.56;7397683;19;20005;-60
2022/12/28 06:13:31;;;;;;;7.45;3.50;;;;;;;7.33;56.05;101005.94;7393698;19;19999;-61
2022/12/28 06:15:57;;;;;;;5.78;3.47;;;;;;;7.45;55.60;101002.63;7397012;19;20070;-60
2022/12/28 06:18:27;;;;;;;6.25;3.45;;;;;;;7.05;56.61;100993.38;7395921;19;19995;-59
2022/12/28 06:20:53;;;;;;;6.93;3.58;;;;;;;7.08;56.62;100980.28;7397210;19;20006;-60
2022/12/28 06:23:19;;;;;;;7.10;3.42;;;;;;;7.19;56.19;100989.75;7393811;19;20006;-59
2022/12/28 06:25:45;;;;;;;8.35;3.60;;;;;;;7.32;55.98;100986.13;7397077;19;20010;-60
2022/12/28 06:28:11;;;;;;;6.05;3.53;;;;;;;6.95;57.30;100969.22;7397521;19;19991;-60
2022/12/28 06:30:36;;;;;;;5.15;3.20;;;;;;;6.81;57.78;100976.59;7394589;19;20024;-58
2022/12/28 06:33:02;;;;;;;7.10;3.58;;;;;;;7.07;56.99;100967.84;7395134;19;20009;-61
2022/12/28 06:35:28;;;;;;;6.32;3.50;;;;;;;7.10;57.07;100972.66;7396699;19;20331;-60
2022/12/28 06:37:54;;;;;;;5.40;3.30;;;;;;;7.35;56.39;100961.06;7395185;19;19998;-60
2022/12/28 06:40:19;;;;;;;5.95;3.72;;;;;;;7.32;56.77;100958.97;7396745;19;20067;-61
2022/12/28 06:42:45;;;;;;;8.18;3.53;;;;;;;7.11;57.19;100956.03;7394321;19;19991;-60
2022/12/28 06:45:11;;;;;;;8.32;3.88;;;;;;;7.29;57.02;100950.66;7396605;19;20002;-60
2022/12/28 06:47:36;;;;;;;6.50;3.50;;;;;;;7.27;56.83;100956.41;7395706;19;19999;-60
2022/12/28 06:50:03;;;;;;;6.85;3.60;;;;;;;7.28;56.85;100957.19;7396474;19;19998;-60
2022/12/28 06:52:35;;;;;;;6.68;3.75;;;;;;;7.30;57.21;100950.34;7394157;19;19998;-60
2022/12/28 06:55:01;;;;;;;7.03;4.20;;;;;;;7.11;57.73;100953.34;7395960;19;20020;-60
2022/12/28 06:57:27;;;;;;;6.93;3.80;;;;;;;7.20;57.82;100939.78;7395367;19;20071;-61
2022/12/28 06:59:52;;;;;;;8.43;4.43;;;;;;;7.21;57.75;100946.78;7396752;19;20003;-60
2022/12/28 07:02:18;;;;;;;7.45;4.38;;;;;;;7.36;57.66;100943.66;7394918;19;20114;-58
2022/12/28 07:04:44;;;;;;;7.47;4.20;;;;;;;7.60;56.67;100940.50;7394406;19;19998;-60
2022/12/28 07:07:10;;;;;;;7.40;4.55;;;;;;;7.30;57.21;100938.69;7395263;19;20003;-61
2022/12/28 07:09:35;;;;;;;8.60;4.55;;;;;;;7.18;58.20;100926.53;7391337;19;20003;-58
2022/12/28 07:12:01;;;;;;;8.38;4.50;;;;;;;7.36;57.65;100924.66;7394840;19;20009;-61
2022/12/28 07:14:27;;;;;;;7.28;4.90;;;;;;;7.55;57.39;100929.00;7395084;19;20078;-62
2022/12/28 07:16:53;;;;;;;6.78;4.25;;;;;;;7.54;57.09;100927.38;7395206;19;20006;-62
2022/12/28 07:19:18;;;;;;;8.13;4.20;;;;;;;7.64;56.77;100935.22;7395450;19;20058;-62
2022/12/28 07:21:44;;;;;;;7.20;3.83;;;;;;;7.81;56.47;100931.72;7394059;19;20074;-61
2022/12/28 07:24:10;;;;;;;5.90;3.78;;;;;;;8.08;55.76;100940.69;7392105;19;20046;-60
2022/12/28 07:26:36;;;;;;;6.40;4.00;;;;;;;8.02;56.00;100952.84;7395098;19;19999;-59
2022/12/28 07:29:04;;;;;;;6.60;4.18;;;;;;;7.59;57.26;100935.38;7395359;19;20009;-59
2022/12/28 07:31:38;;;;;;;6.85;3.80;;;;;;;7.55;58.02;100945.31;7394875;19;20019;-60
2022/12/28 07:34:04;;;;;;;6.30;3.72;;;;;;;7.87;56.69;100945.97;7394676;19;19997;-59
2022/12/28 07:36:31;;;;;;;6.15;3.70;;;;;;;8.03;56.39;100944.38;7394720;19;20065;-60
2022/12/28 07:38:57;;;;;;;6.30;3.80;;;;;;;7.81;56.91;100947.25;7392061;19;19998;-60
2022/12/28 07:41:26;;;;;;;6.55;3.92;;;;;;;7.62;57.91;100940.19;7393361;19;20469;-60
2022/12/28 07:43:53;;;;;;;7.93;3.92;;;;;;;8.01;56.73;100957.47;7393570;19;19998;-60
2022/12/28 07:46:25;;;;;;;6.90;3.95;;;;;;;8.24;56.23;100951.88;7394413;19;20016;-60
2022/12/28 07:48:51;;;;;;;6.68;3.80;;;;;;;7.86;57.44;100949.78;7394476;19;20058;-60
2022/12/28 07:51:22;;;;;;;6.07;3.85;;;;;;;7.72;57.80;100942.59;7394645;19;20331;-60
2022/12/28 07:53:50;;;;;;;5.68;3.58;;;;;;;8.07;56.79;100950.75;7391270;19;20355;-60
2022/12/28 07:56:17;;;;;;;8.38;3.90;;;;;;;8.03;56.98;100938.94;7393870;19;20003;-59
2022/12/28 07:58:50;;;;;;;8.93;4.55;;;;;;;7.91;57.41;100945.03;7392333;19;20006;-58
2022/12/28 08:01:18;;;;;;;7.57;4.10;;;;;;;8.02;57.14;100948.22;7394215;19;20007;-59
2022/12/28 08:03:44;;;;;;;7.53;4.35;;;;;;;7.76;58.25;100934.59;7391020;19;20470;-60
2022/12/28 08:06:13;;;;;;;7.88;3.90;;;;;;;7.94;57.60;100938.13;7393192;19;20534;-62
2022/12/28 08:08:42;;;;;;;7.85;4.18;;;;;;;8.13;57.25;100954.94;7393558;19;20454;-61
2022/12/28 08:11:11;;;;;;;7.28;4.20;;;;;;;8.18;56.97;100956.69;7393912;19;20022;-58
2022/12/28 08:13:40;;;;;;;6.28;3.78;;;;;;;8.36;56.44;100946.59;7390944;19;20080;-60
2022/12/28 08:16:06;;;;;;;5.88;3.67;;;;;;;8.29;56.81;100949.78;7393775;19;20017;-58
2022/12/28 08:18:32;;;;;;;6.07;3.63;;;;;;;8.30;56.65;100948.66;7391857;19;19995;-60
2022/12/28 08:21:03;;;;;;;6.22;3.88;;;;;;;8.47;56.09;100953.31;7392800;19;20009;-61
2022/12/28 08:23:30;;;;;;;5.93;3.80;;;;;;;8.30;56.70;100973.16;7390503;19;20011;-59
2022/12/28 08:26:05;;;;;;;7.47;3.85;;;;;;;8.32;56.89;100951.88;7391530;19;20026;-59
2022/12/28 08:28:31;;;;;;;5.80;3.47;;;;;;;8.20;57.36;100970.75;7393380;19;20042;-61
2022/12/28 08:30:56;;;;;;;6.35;3.80;;;;;;;8.30;57.11;100942.44;7393189;19;20016;-61
2022/12/28 08:33:22;;;;;;;5.70;3.15;;;;;;;8.29;57.29;100954.44;7389922;19;20032;-61
2022/12/28 08:35:48;;;;;;;4.95;3.03;;;;;;;8.07;57.90;100960.84;7392571;19;20003;-61
2022/12/28 08:38:13;;;;;;;6.65;3.70;;;;;;;8.32;57.39;100956.53;7391907;19;19994;-59
2022/12/28 08:40:39;;;;;;;5.30;3.25;;;;;;;8.60;56.51;100967.03;7392790;19;20023;-58
2022/12/28 08:43:05;;;;;;;5.30;3.15;;;;;;;8.61;56.45;100953.13;7390629;19;19994;-60
2022/12/28 08:45:31;;;;;;;5.35;3.08;;;;;;;8.32;57.48;100943.72;7392530;19;20025;-60
2022/12/28 08:47:56;;;;;;;6.18;3.35;;;;;;;8.58;56.87;100958.41;7392008;19;20470;-59
2022/12/28 08:50:22;;;;;;;6.55;3.28;;;;;;;8.65;56.57;100956.00;7392005;19;19999;-60
2022/12/28 08:52:48;;;;;;;4.72;2.97;;;;;;;8.59;56.67;100949.13;7390294;19;20424;-60
2022/12/28 08:55:14;;;;;;;5.13;3.08;;;;;;;8.61;56.82;100953.13;7392158;19;20002;-61
2022/12/28 08:57:40;;;;;;;7.13;3.40;;;;;;;8.67;56.70;100953.75;7389883;19;20023;-61
2022/12/28 09:00:15;;;;;;;4.97;3.15;;;;;;;8.87;56.11;100954.97;7389936;19;20015;-60
2022/12/28 09:02:41;;;;;;;6.82;2.80;;;;;;;8.89;56.13;100948.06;7390735;19;20003;-60
2022/12/28 09:05:07;;;;;;;5.38;3.05;;;;;;;8.87;56.28;100950.31;7391536;19;19999;-60
2022/12/28 09:07:33;;;;;;;4.90;2.83;;;;;;;8.97;55.67;100953.81;7391949;19;19999;-60
2022/12/28 09:09:59;;;;;;;5.07;3.08;;;;;;;9.06;55.67;100954.56;7391443;19;19991;-60
2022/12/28 09:12:24;;;;;;;5.78;3.08;;;;;;;9.12;55.60;100958.72;7390595;19;20610;-60
2022/12/28 09:14:50;;;;;;;5.95;3.03;;;;;;;8.90;56.15;100957.84;7389423;19;20002;-60
2022/12/28 09:17:16;;;;;;;4.28;2.67;;;;;;;8.99;55.98;100960.53;7391522;19;20002;-59
2022/12/28 09:19:42;;;;;;;5.18;3.05;;;;;;;8.85;56.25;100951.78;7391800;19;20459;-60
2022/12/28 09:22:07;;;;;;;4.60;2.90;;;;;;;8.76;56.85;100957.22;7391179;19;20002;-60
2022/12/28 09:24:40;;;;;;;6.60;2.92;;;;;;;8.95;56.17;100961.50;7388191;19;19994;-60
2022/12/28 09:27:06;;;;;;;5.13;3.13;;;;;;;8.94;56.08;100962.63;7391325;19;20382;-60
2022/12/28 09:29:31;;;;;;;4.75;2.72;;;;;;;8.74;57.02;100972.31;7390950;19;20023;-59
2022/12/28 09:32:04;;;;;;;5.82;2.65;;;;;;;8.99;56.46;100973.34;7388889;19;20003;-59
2022/12/28 09:34:30;;;;;;;5.32;3.15;;;;;;;9.00;56.32;100980.38;7390069;19;20013;-59
2022/12/28 09:36:56;;;;;;;7.18;3.10;;;;;;;9.12;55.83;100972.31;7390321;19;20462;-60
2022/12/28 09:39:23;;;;;;;5.03;2.90;;;;;;;9.24;55.78;100980.59;7390770;19;19998;-60
2022/12/28 09:42:15;;;;;;;5.45;2.92;;;;;;;9.00;56.32;100969.47;7390587;19;20002;-59
2022/12/28 09:45:04;;;;;;;4.85;2.63;;;;;;;9.00;56.72;100978.47;7389300;19;19998;-59
2022/12/28 09:47:39;;;;;;;5.85;2.60;;;;;;;9.30;55.75;100962.16;7390461;19;20003;-59
2022/12/28 09:50:23;;;;;;;5.07;2.75;;;;;;;9.30;55.62;100973.06;7390081;19;20054;-57
2022/12/28 09:53:10;;;;;;;5.00;2.45;;;;;;;9.13;56.23;100973.91;7388791;19;20011;-58
2022/12/28 09:55:40;;;;;;;4.53;2.40;;;;;;;9.21;55.84;100954.00;7390468;19;20073;-57
2022/12/28 09:58:15;;;;;;;5.90;2.90;;;;;;;9.25;55.88;100971.31;7389246;19;19990;-59
2022/12/28 10:00:53;;;;;;;4.00;2.20;;;;;;;9.20;55.98;100966.03;7389751;19;20355;-58
2022/12/28 10:03:24;;;;;;;5.03;2.22;;;;;;;9.18;56.18;100954.69;7386865;19;20054;-58
2022/12/28 10:05:50;;;;;;;5.60;2.50;;;;;;;9.29;56.01;100960.56;7389326;19;19995;-59
2022/12/28 10:08:20;;;;;;;5.57;2.40;;;;;;;9.35;55.73;100950.25;7390422;19;20383;-58
2022/12/28 10:10:47;;;;;;;3.42;2.35;;;;;;;8.96;56.75;100946.78;7390603;19;19998;-59
2022/12/28 10:13:25;;;;;;;4.32;2.40;;;;;;;9.02;56.87;100940.03;7387036;19;19998;-60
2022/12/28 10:15:51;;;;;;;3.78;2.20;;;;;;;9.08;56.94;100952.31;7389531;19;20066;-58
2022/12/28 10:18:23;;;;;;;5.95;2.55;;;;;;;9.32;56.16;100949.00;7388781;19;20023;-58
2022/12/28 10:20:49;;;;;;;5.97;2.60;;;;;;;9.30;56.15;100947.72;7389857;19;20010;-58
2022/12/28 10:23:28;;;;;;;3.75;1.92;;;;;;;9.23;56.83;100951.78;7387227;19;20007;-59
2022/12/28 10:25:56;;;;;;;3.88;2.20;;;;;;;9.30;56.46;100953.16;7389485;19;20087;-59
2022/12/28 10:28:27;;;;;;;3.35;2.28;;;;;;;9.20;56.97;100951.63;7390172;19;20005;-59
2022/12/28 10:31:02;;;;;;;5.32;2.10;;;;;;;9.15;57.14;100949.91;7389375;19;20002;-60
2022/12/28 10:33:27;;;;;;;4.63;2.35;;;;;;;9.15;57.70;100947.16;7387381;19;20002;-58
2022/12/28 10:35:54;;;;;;;3.80;2.17;;;;;;;9.45;56.64;100953.41;7389565;19;20005;-58
2022/12/28 10:38:28;;;;;;;4.85;2.30;;;;;;;9.37;57.20;100940.63;7388214;19;20009;-57
2022/12/28 10:41:00;;;;;;;4.22;2.10;;;;;;;9.45;56.69;100944.44;7389879;19;20078;-57
2022/12/28 10:43:29;;;;;;;3.33;1.95;;;;;;;9.32;57.19;100954.44;7387659;19;20007;-57
2022/12/28 10:45:56;;;;;;;3.47;2.08;;;;;;;9.14;57.56;100951.00;7396025;19;20363;-57
2022/12/28 10:48:37;;;;;;;4.20;2.00;;;;;;;9.42;57.12;100937.72;7396436;19;20003;-58
2022/12/28 10:51:06;;;;;;;4.28;2.10;;;;;;;9.37;57.09;100945.31;7396432;19;20022;-57
2022/12/28 10:53:41;;;;;;;6.20;2.22;;;;;;;9.42;56.92;100934.22;7393637;19;19995;-58
2022/12/28 10:56:10;;;;;;;4.38;2.20;;;;;;;9.14;58.14;100940.13;7396371;19;20062;-58
2022/12/28 10:58:35;;;;;;;3.55;2.10;;;;;;;9.42;57.12;100936.94;7393852;19;20001;-57
2022/12/28 11:01:18;;;;;;;4.28;2.50;;;;;;;9.44;57.13;100940.13;7393791;19;19999;-58
2022/12/28 11:03:58;;;;;;;4.70;2.42;;;;;;;9.44;57.37;100943.63;7391315;19;19998;-58
2022/12/28 11:06:29;;;;;;;4.93;2.53;;;;;;;9.35;57.28;100942.91;7394514;19;19999;-59
2022/12/28 11:09:03;;;;;;;6.50;2.42;;;;;;;9.56;56.59;100926.56;7395469;19;20022;-57
2022/12/28 11:11:29;;;;;;;4.32;2.53;;;;;;;9.57;56.78;100928.16;7395111;19;19991;-58
2022/12/28 11:14:05;;;;;;;4.45;2.80;;;;;;;9.71;56.40;100930.66;7396129;19;19999;-58
2022/12/28 11:16:35;;;;;;;4.53;2.45;;;;;;;9.46;57.12;100922.28;7395609;19;20029;-59
2022/12/28 11:19:01;;;;;;;4.45;2.60;;;;;;;9.45;57.40;100926.16;7393484;19;20032;-59
2022/12/28 11:21:27;;;;;;;5.53;2.70;;;;;;;9.72;56.51;100915.91;7395531;19;20001;-59
2022/12/28 11:23:53;;;;;;;4.78;2.47;;;;;;;9.67;56.36;100927.03;7393723;19;20571;-58
2022/12/28 11:26:20;;;;;;;3.83;2.22;;;;;;;9.74;56.34;100930.00;7394719;19;20070;-58
2022/12/28 11:28:49;;;;;;;6.40;2.30;;;;;;;9.63;56.51;100916.00;7394163;19;20007;-57
2022/12/28 11:31:21;;;;;;;3.55;2.13;;;;;;;9.57;56.68;100911.81;7395123;19;20007;-57
2022/12/28 11:33:55;;;;;;;2.70;1.90;;;;;;;9.65;56.48;100912.94;7392411;19;20025;-57
2022/12/28 11:36:24;;;;;;;3.95;2.05;;;;;;;9.68;56.50;100914.19;7393370;19;20010;-58
2022/12/28 11:38:52;;;;;;;4.20;2.10;;;;;;;9.67;56.53;100909.84;7390858;19;20035;-58
2022/12/28 11:41:24;;;;;;;5.15;2.15;;;;;;;9.67;56.58;100909.84;7394657;19;20003;-58
2022/12/28 11:43:54;;;;;;;3.25;2.00;;;;;;;9.73;56.31;100912.03;7391982;19;19999;-59
2022/12/28 11:46:20;;;;;;;3.13;2.15;;;;;;;9.78;56.10;100900.97;7394324;19;20630;-59
2022/12/28 11:49:22;;;;;;;3.65;2.10;;;;;;;9.87;55.99;100892.72;7392654;19;20003;-58
2022/12/28 11:52:13;;;;;;;3.53;2.10;;;;;;;9.89;55.73;100904.06;7394054;19;20003;-59
2022/12/28 11:55:13;;;;;;;5.20;2.05;;;;;;;9.91;55.68;100893.63;7393147;19;20007;-58
2022/12/28 11:57:40;;;;;;;5.05;2.30;;;;;;;9.57;56.63;100895.47;7393037;19;20010;-58
2022/12/28 12:00:15;;;;;;;4.47;2.10;;;;;;;9.85;56.06;100894.97;7394502;19;19991;-58
2022/12/28 12:02:55;;;;;;;3.25;1.83;;;;;;;9.91;55.71;100888.16;7392358;19;20006;-58
2022/12/28 12:05:36;;;;;;;4.20;2.42;;;;;;;9.78;55.97;100892.78;7394566;19;20058;-57
2022/12/28 12:08:21;;;;;;;3.85;1.77;;;;;;;9.77;56.11;100898.56;7394533;19;20019;-58
2022/12/28 12:11:08;;;;;;;3.03;1.65;;;;;;;9.95;55.30;100889.09;7393659;19;20002;-58
2022/12/28 12:13:47;;;;;;;3.08;1.75;;;;;;;9.87;55.68;100887.25;7390425;19;20006;-58